Time;durP1;ratioP1;P1;durP2;ratioP2;P2;SDS_P1;SDS_P2;PMS_P1;PMS_P2;Temp;Humidity;BMP_temperature;BMP_pressure;BME280_temperature;BME280_humidity;BME280_pressure;Samples;Min_cycle;Max_cycle;Signal;HPM_P1;HPM_P2
2021/11/24 00:01:32;;;;;;;24.90;22.30;;;-1.50;99.90;;;;;;5091609;28;20488;-69
2021/11/24 00:03:58;;;;;;;23.17;21.17;;;-1.50;99.90;;;;;;5090966;28;20446;-70
2021/11/24 00:06:25;;;;;;;25.23;22.93;;;-1.50;99.90;;;;;;5091564;28;20450;-70
2021/11/24 00:08:53;;;;;;;25.30;21.83;;;-1.50;99.90;;;;;;5091379;28;20645;-70
2021/11/24 00:11:20;;;;;;;23.67;21.30;;;-1.60;99.90;;;;;;5091023;28;20554;-71
2021/11/24 00:13:46;;;;;;;23.20;21.30;;;-1.60;99.90;;;;;;5091222;28;20826;-71
2021/11/24 00:16:13;;;;;;;22.43;20.53;;;-1.60;99.90;;;;;;5091366;28;20445;-71
2021/11/24 00:18:40;;;;;;;22.67;20.57;;;-1.70;99.90;;;;;;5090610;28;20480;-71
2021/11/24 00:21:08;;;;;;;23.87;21.67;;;-1.70;99.90;;;;;;5090727;28;20881;-70
2021/11/24 00:23:35;;;;;;;23.30;21.50;;;-1.70;99.90;;;;;;5090447;28;20925;-70
2021/11/24 00:26:03;;;;;;;22.07;20.27;;;-1.70;99.90;;;;;;5090851;28;20456;-70
2021/11/24 00:28:30;;;;;;;23.50;21.40;;;-1.80;99.90;;;;;;5090848;28;20535;-70
2021/11/24 00:30:57;;;;;;;23.17;20.97;;;-1.80;99.90;;;;;;5090709;28;20814;-70
2021/11/24 00:33:24;;;;;;;24.40;21.87;;;-1.80;99.90;;;;;;5090686;28;21004;-70
2021/11/24 00:35:51;;;;;;;22.77;21.07;;;-1.90;99.90;;;;;;5090558;28;20468;-70
2021/11/24 00:38:17;;;;;;;21.93;20.13;;;-1.90;99.90;;;;;;5090634;28;20452;-70
2021/11/24 00:40:44;;;;;;;23.80;21.80;;;-1.80;99.90;;;;;;5090349;28;20446;-70
2021/11/24 00:43:12;;;;;;;24.30;22.03;;;-1.90;99.90;;;;;;5090347;28;20996;-70
2021/11/24 00:45:39;;;;;;;24.63;22.53;;;-1.90;99.90;;;;;;5090485;28;20451;-71
2021/11/24 00:48:06;;;;;;;24.90;22.60;;;-1.90;99.90;;;;;;5090493;28;20460;-71
2021/11/24 00:50:33;;;;;;;24.10;21.70;;;-1.90;99.90;;;;;;5090100;28;20442;-71
2021/11/24 00:53:00;;;;;;;22.43;20.43;;;-1.90;99.90;;;;;;5090633;28;20450;-70
2021/11/24 00:55:26;;;;;;;22.87;20.77;;;-1.90;99.90;;;;;;5090560;28;20455;-69
2021/11/24 00:57:55;;;;;;;23.10;20.77;;;-1.80;99.90;;;;;;5090107;28;20453;-71
2021/11/24 01:00:23;;;;;;;23.60;21.37;;;-1.90;99.90;;;;;;5090206;28;21055;-71
2021/11/24 01:02:50;;;;;;;23.37;21.53;;;-1.90;99.90;;;;;;5090085;28;20611;-71
2021/11/24 01:05:17;;;;;;;22.87;20.77;;;-1.90;99.90;;;;;;5089935;28;20459;-70
2021/11/24 01:07:44;;;;;;;25.23;23.10;;;-2.00;99.90;;;;;;5090154;28;20447;-71
2021/11/24 01:10:12;;;;;;;23.90;21.60;;;-2.00;99.90;;;;;;5090155;28;20458;-71
2021/11/24 01:12:42;;;;;;;24.07;21.77;;;-2.00;99.90;;;;;;5090138;28;20447;-71
2021/11/24 01:15:10;;;;;;;26.40;24.10;;;-1.90;99.90;;;;;;5089908;28;20747;-71
2021/11/24 01:17:38;;;;;;;25.00;22.33;;;-1.90;99.90;;;;;;5089975;28;20453;-71
2021/11/24 01:20:06;;;;;;;22.67;20.67;;;-2.00;99.90;;;;;;5089859;28;20475;-72
2021/11/24 01:22:33;;;;;;;25.67;22.60;;;-2.00;99.90;;;;;;5089810;28;21065;-71
2021/11/24 01:24:59;;;;;;;24.83;22.67;;;-2.00;99.90;;;;;;5090034;28;20481;-71
2021/11/24 01:27:26;;;;;;;24.97;22.67;;;-2.00;99.90;;;;;;5089919;28;20484;-71
2021/11/24 01:29:53;;;;;;;23.63;21.43;;;-2.00;99.90;;;;;;5090334;28;20539;-71
2021/11/24 01:32:20;;;;;;;23.90;21.93;;;-2.00;99.90;;;;;;5090083;28;20454;-70
2021/11/24 01:34:48;;;;;;;24.60;22.30;;;-1.90;99.90;;;;;;5089946;28;20839;-70
2021/11/24 01:37:15;;;;;;;26.43;22.10;;;-1.90;99.90;;;;;;5090141;28;20445;-70
2021/11/24 01:39:43;;;;;;;25.10;22.60;;;-1.90;99.90;;;;;;5089908;28;20452;-70
2021/11/24 01:42:10;;;;;;;25.23;22.63;;;-1.90;99.90;;;;;;5089797;28;20504;-70
2021/11/24 01:44:38;;;;;;;24.37;22.40;;;-1.90;99.90;;;;;;5089726;28;20488;-70
2021/11/24 01:47:06;;;;;;;31.07;24.00;;;-1.80;99.90;;;;;;5089948;28;20473;-70
2021/11/24 01:49:32;;;;;;;25.63;23.42;;;-1.90;99.90;;;;;;5090073;28;20447;-70
2021/11/24 01:52:01;;;;;;;25.13;23.00;;;-1.90;99.90;;;;;;5090139;28;20572;-70
2021/11/24 01:54:29;;;;;;;23.17;21.10;;;-2.00;99.90;;;;;;5089825;28;20449;-70
2021/11/24 01:56:56;;;;;;;25.65;23.02;;;-2.00;99.90;;;;;;5089951;28;20442;-70
2021/11/24 01:59:23;;;;;;;26.27;23.93;;;-2.00;99.90;;;;;;5089933;28;20210;-70
2021/11/24 02:01:50;;;;;;;25.40;22.63;;;-1.90;99.90;;;;;;5089904;28;20845;-69
2021/11/24 02:04:18;;;;;;;26.03;23.53;;;-2.00;99.90;;;;;;5090201;28;20965;-69
2021/11/24 02:06:45;;;;;;;25.83;23.63;;;-2.00;99.90;;;;;;5090169;28;20449;-70
2021/11/24 02:09:14;;;;;;;27.00;23.90;;;-1.90;99.90;;;;;;5089902;28;20451;-70
2021/11/24 02:11:43;;;;;;;24.43;22.20;;;-1.80;99.90;;;;;;5090089;28;20454;-70
2021/11/24 02:14:11;;;;;;;24.37;22.37;;;-1.80;99.90;;;;;;5090070;28;20447;-70
2021/11/24 02:16:41;;;;;;;26.00;23.67;;;-1.80;99.90;;;;;;5089949;28;20599;-70
2021/11/24 02:19:07;;;;;;;26.40;24.03;;;-1.90;99.90;;;;;;5089769;28;20816;-70
2021/11/24 02:21:36;;;;;;;26.47;23.93;;;-2.00;99.90;;;;;;5089955;28;20459;-70
2021/11/24 02:24:03;;;;;;;24.77;22.57;;;-2.00;99.90;;;;;;5090148;28;20481;-71
2021/11/24 02:26:30;;;;;;;25.40;23.20;;;-2.20;99.90;;;;;;5091438;28;20453;-70
2021/11/24 02:28:57;;;;;;;24.50;22.23;;;-2.30;99.90;;;;;;5093497;28;20476;-71
2021/11/24 02:31:26;;;;;;;27.30;24.47;;;-2.30;99.90;;;;;;5093538;28;20457;-72
2021/11/24 02:33:54;;;;;;;26.33;23.35;;;-2.10;99.90;;;;;;5093595;28;20921;-70
2021/11/24 02:36:21;;;;;;;25.67;23.10;;;-2.10;99.90;;;;;;5093463;28;20245;-70
2021/11/24 02:38:49;;;;;;;25.73;23.03;;;-2.20;99.90;;;;;;5093326;28;20448;-70
2021/11/24 02:41:17;;;;;;;24.47;21.87;;;-2.30;99.90;;;;;;5093521;28;20448;-69
2021/11/24 02:43:44;;;;;;;25.75;23.38;;;-2.30;99.90;;;;;;5093534;28;20531;-69
2021/11/24 02:46:11;;;;;;;27.17;24.60;;;-2.20;99.90;;;;;;5093464;28;20574;-70
2021/11/24 02:48:39;;;;;;;25.03;22.67;;;-2.20;99.90;;;;;;5093205;28;20212;-70
2021/11/24 02:51:06;;;;;;;24.95;22.90;;;-2.10;99.90;;;;;;5093206;28;20942;-70
2021/11/24 02:53:35;;;;;;;25.63;23.13;;;-2.10;99.90;;;;;;5092933;28;20196;-70
2021/11/24 02:56:05;;;;;;;24.70;22.50;;;-2.00;99.90;;;;;;5093570;28;20861;-70
2021/11/24 02:58:32;;;;;;;24.27;22.13;;;-2.10;99.90;;;;;;5093329;28;20451;-70
2021/11/24 03:01:02;;;;;;;25.27;22.90;;;-2.10;99.90;;;;;;5092868;28;20457;-70
2021/11/24 03:03:29;;;;;;;24.97;22.87;;;-2.20;99.90;;;;;;5092989;28;20585;-71
2021/11/24 03:05:56;;;;;;;27.67;24.77;;;-2.30;99.90;;;;;;5093097;28;20958;-71
2021/11/24 03:08:23;;;;;;;25.53;23.23;;;-2.30;99.90;;;;;;5092542;28;20479;-71
2021/11/24 03:10:49;;;;;;;28.00;25.10;;;-2.30;99.90;;;;;;5092757;28;20459;-71
2021/11/24 03:13:17;;;;;;;26.07;23.30;;;-2.20;99.90;;;;;;5092878;28;20453;-71
2021/11/24 03:15:44;;;;;;;24.73;22.73;;;-2.20;99.90;;;;;;5093056;28;20449;-71
2021/11/24 03:18:11;;;;;;;26.33;23.90;;;-2.20;99.90;;;;;;5092447;28;20789;-71
2021/11/24 03:20:38;;;;;;;25.47;23.57;;;-2.30;99.90;;;;;;5092563;28;20494;-70
2021/11/24 03:23:04;;;;;;;24.75;22.55;;;-2.30;99.90;;;;;;5092430;28;20483;-70
2021/11/24 03:25:31;;;;;;;26.03;23.27;;;-2.40;99.90;;;;;;5092631;28;20216;-70
2021/11/24 03:27:58;;;;;;;25.03;22.83;;;-2.40;99.90;;;;;;5092556;28;20848;-71
2021/11/24 03:30:29;;;;;;;25.30;23.17;;;-2.50;99.90;;;;;;5092441;28;20458;-71
2021/11/24 03:32:57;;;;;;;25.43;23.23;;;-2.40;99.90;;;;;;5092548;28;20445;-75
2021/11/24 03:35:25;;;;;;;27.60;24.80;;;-2.30;99.90;;;;;;5092347;28;20456;-72
2021/11/24 03:37:53;;;;;;;27.90;25.40;;;-2.30;99.90;;;;;;5092281;28;20481;-73
2021/11/24 03:40:23;;;;;;;24.97;22.63;;;-2.20;99.90;;;;;;5092229;28;20450;-72
2021/11/24 03:42:51;;;;;;;26.93;24.60;;;-2.20;99.90;;;;;;5091951;28;20478;-72
2021/11/24 03:45:20;;;;;;;24.10;22.10;;;-2.10;99.90;;;;;;5092299;28;20512;-73
2021/11/24 03:47:49;;;;;;;26.27;24.03;;;-2.10;99.90;;;;;;5092350;28;20441;-72
2021/11/24 03:50:16;;;;;;;26.80;24.10;;;-2.20;99.90;;;;;;5092262;28;20449;-73
2021/11/24 03:52:43;;;;;;;25.17;23.03;;;-2.20;99.90;;;;;;5091950;28;20444;-73
2021/11/24 03:55:11;;;;;;;23.97;21.97;;;-2.20;99.90;;;;;;5092015;28;20512;-72
2021/11/24 03:57:39;;;;;;;26.10;23.57;;;-2.10;99.90;;;;;;5091847;28;20457;-73
2021/11/24 04:00:08;;;;;;;26.17;23.88;;;-2.00;99.90;;;;;;5091894;28;20447;-72
2021/11/24 04:02:34;;;;;;;25.03;22.70;;;-2.00;99.90;;;;;;5091172;28;20210;-72
2021/11/24 04:05:02;;;;;;;25.87;23.60;;;-2.00;99.90;;;;;;5092099;28;20958;-72
2021/11/24 04:07:29;;;;;;;26.10;23.90;;;-2.00;99.90;;;;;;5091977;28;20457;-72
2021/11/24 04:09:56;;;;;;;27.47;25.00;;;-2.00;99.90;;;;;;5091780;28;20460;-73
2021/11/24 04:12:22;;;;;;;27.30;24.60;;;-2.00;99.90;;;;;;5091735;28;20450;-73
2021/11/24 04:14:49;;;;;;;25.13;23.33;;;-2.00;99.90;;;;;;5091702;28;20441;-73
2021/11/24 04:17:16;;;;;;;26.17;23.80;;;-2.00;99.90;;;;;;5091908;28;20448;-72
2021/11/24 04:19:43;;;;;;;25.42;23.23;;;-2.10;99.90;;;;;;5091637;28;20488;-74
2021/11/24 04:22:11;;;;;;;25.33;23.33;;;-2.20;99.90;;;;;;5096338;28;20201;-73
2021/11/24 04:24:37;;;;;;;24.27;21.93;;;-2.30;99.90;;;;;;5100572;28;20832;-73
2021/11/24 04:27:05;;;;;;;25.40;23.30;;;-2.40;99.90;;;;;;5099104;28;20467;-73
2021/11/24 04:29:32;;;;;;;26.20;23.97;;;-2.50;99.90;;;;;;5101126;28;20660;-73
2021/11/24 04:31:58;;;;;;;25.42;23.20;;;-2.50;99.90;;;;;;5100556;28;20447;-72
2021/11/24 04:34:25;;;;;;;27.87;24.60;;;-2.60;99.90;;;;;;5098750;28;20211;-72
2021/11/24 04:36:52;;;;;;;23.77;21.77;;;-2.50;99.90;;;;;;5100968;28;20450;-72
2021/11/24 04:39:20;;;;;;;24.35;22.35;;;-2.60;99.90;;;;;;5100418;28;20442;-72
2021/11/24 04:41:47;;;;;;;25.53;23.40;;;-2.50;99.90;;;;;;5099173;28;20196;-72
2021/11/24 04:44:13;;;;;;;24.47;22.50;;;-2.40;99.90;;;;;;5100658;28;20479;-71
2021/11/24 04:46:40;;;;;;;26.57;24.03;;;-2.50;99.90;;;;;;5100306;28;20935;-73
2021/11/24 04:49:07;;;;;;;24.20;22.10;;;-2.50;99.90;;;;;;5098245;28;20951;-72
2021/11/24 04:51:34;;;;;;;25.63;23.07;;;-2.50;99.90;;;;;;5100508;28;20449;-72
2021/11/24 04:54:01;;;;;;;25.67;23.33;;;-2.40;99.90;;;;;;5100630;28;20450;-72
2021/11/24 04:56:29;;;;;;;23.97;22.07;;;-2.40;99.90;;;;;;5098658;28;20448;-72
2021/11/24 04:58:57;;;;;;;23.97;22.07;;;-2.40;99.90;;;;;;5100080;28;20448;-72
2021/11/24 05:01:24;;;;;;;25.17;22.67;;;-2.40;99.90;;;;;;5091696;28;20449;-73
2021/11/24 05:03:52;;;;;;;23.73;21.63;;;-2.50;99.90;;;;;;5090903;28;20490;-72
2021/11/24 05:06:20;;;;;;;24.10;21.70;;;-2.50;99.90;;;;;;5090920;28;20779;-72
2021/11/24 05:08:48;;;;;;;23.67;21.88;;;-2.40;99.90;;;;;;5090827;28;20451;-72
2021/11/24 05:11:16;;;;;;;24.50;22.57;;;-2.30;99.90;;;;;;5090982;28;20574;-72
2021/11/24 05:13:49;;;;;;;24.70;22.70;;;-2.30;99.90;;;;;;5090763;28;20454;-72
2021/11/24 05:16:17;;;;;;;23.30;21.50;;;-2.30;99.90;;;;;;5090969;28;20209;-72
2021/11/24 05:18:48;;;;;;;22.80;20.80;;;-2.30;99.90;;;;;;5090654;28;20493;-73
2021/11/24 05:21:19;;;;;;;24.13;22.10;;;-2.20;99.90;;;;;;5090894;28;20680;-73
2021/11/24 05:23:45;;;;;;;22.97;21.10;;;-2.20;99.90;;;;;;5091109;28;20951;-74
2021/11/24 05:26:12;;;;;;;23.20;21.10;;;-2.20;99.90;;;;;;5090801;28;20959;-74
2021/11/24 05:28:39;;;;;;;25.05;22.63;;;-2.10;99.90;;;;;;5090427;28;20478;-74
2021/11/24 05:31:08;;;;;;;22.90;20.97;;;-2.10;99.90;;;;;;5090550;28;20210;-75
2021/11/24 05:33:36;;;;;;;24.73;22.53;;;-2.10;99.90;;;;;;5090551;28;20444;-74
2021/11/24 05:36:03;;;;;;;24.07;22.13;;;-2.20;99.90;;;;;;5090420;28;20475;-74
2021/11/24 05:38:30;;;;;;;23.40;21.50;;;-2.10;99.90;;;;;;5090578;28;20448;-74
2021/11/24 05:40:57;;;;;;;22.50;20.93;;;-2.10;99.90;;;;;;5090424;28;20449;-73
2021/11/24 05:43:26;;;;;;;22.57;20.57;;;-2.10;99.90;;;;;;5090419;28;20501;-74
2021/11/24 05:48:36;;;;;;;23.70;21.77;;;-2.10;99.90;;;;;;5090126;28;20521;-73
2021/11/24 05:51:03;;;;;;;25.10;22.90;;;-2.20;99.90;;;;;;5090456;28;20468;-72
2021/11/24 05:53:30;;;;;;;23.53;21.63;;;-2.30;99.90;;;;;;5090612;28;20443;-73
2021/11/24 05:55:58;;;;;;;25.73;23.50;;;-2.40;99.90;;;;;;5090629;28;20443;-72
2021/11/24 05:58:25;;;;;;;22.87;21.37;;;-2.40;99.90;;;;;;5090396;28;20449;-73
2021/11/24 06:00:52;;;;;;;22.30;20.70;;;-2.50;99.90;;;;;;5090446;28;20454;-73
2021/11/24 06:03:19;;;;;;;22.65;20.67;;;-2.50;99.90;;;;;;5094207;28;20447;-74
2021/11/24 06:05:48;;;;;;;22.93;20.80;;;-2.50;99.90;;;;;;5094501;28;20256;-72
2021/11/24 06:08:14;;;;;;;23.27;21.07;;;-2.50;99.90;;;;;;5094460;28;20443;-72
2021/11/24 06:10:41;;;;;;;23.45;21.33;;;-2.50;99.90;;;;;;5094186;28;20456;-71
2021/11/24 06:13:08;;;;;;;23.27;21.17;;;-2.50;99.90;;;;;;5094035;28;20667;-72
2021/11/24 06:15:35;;;;;;;24.17;21.77;;;-2.60;99.90;;;;;;5093991;28;20930;-73
2021/11/24 06:18:02;;;;;;;24.50;22.17;;;-2.60;99.90;;;;;;5094406;28;20455;-73
2021/11/24 06:20:29;;;;;;;25.20;22.97;;;-2.70;99.90;;;;;;5093838;28;20235;-73
2021/11/24 06:22:57;;;;;;;24.75;22.58;;;-2.60;99.90;;;;;;5093894;28;20942;-73
2021/11/24 06:25:24;;;;;;;25.43;23.07;;;-2.60;99.90;;;;;;5093539;28;20371;-73
2021/11/24 06:27:51;;;;;;;25.03;23.00;;;-2.60;99.90;;;;;;5093481;28;20465;-74
2021/11/24 06:30:18;;;;;;;25.75;23.42;;;-2.60;99.90;;;;;;5094000;28;20451;-74
2021/11/24 06:32:46;;;;;;;24.73;22.40;;;-2.70;99.90;;;;;;5093769;28;20208;-73
2021/11/24 06:35:13;;;;;;;24.10;22.40;;;-2.70;99.90;;;;;;5093741;28;20439;-73
2021/11/24 06:37:40;;;;;;;25.17;23.03;;;-2.70;99.90;;;;;;5093789;28;20457;-73
2021/11/24 06:40:10;;;;;;;26.67;24.07;;;-2.70;99.90;;;;;;5093580;28;20464;-73
2021/11/24 06:42:37;;;;;;;28.20;25.63;;;-2.60;99.90;;;;;;5093679;28;20450;-73
2021/11/24 06:45:06;;;;;;;27.38;25.00;;;-2.50;99.90;;;;;;5093187;28;20484;-74
2021/11/24 06:47:33;;;;;;;25.90;23.43;;;-2.40;99.90;;;;;;5093844;28;20214;-74
2021/11/24 06:50:00;;;;;;;25.80;23.50;;;-2.40;99.90;;;;;;5093456;28;20450;-73
2021/11/24 06:52:26;;;;;;;25.77;23.10;;;-2.40;99.90;;;;;;5093440;28;20452;-74
2021/11/24 06:54:53;;;;;;;24.40;22.33;;;-2.40;99.90;;;;;;5093307;28;20493;-74
2021/11/24 06:57:21;;;;;;;29.13;24.80;;;-2.40;99.90;;;;;;5093102;28;20843;-73
2021/11/24 06:59:48;;;;;;;27.23;24.87;;;-2.40;99.90;;;;;;5093584;28;20446;-73
2021/11/24 07:02:14;;;;;;;25.50;23.33;;;-2.40;99.90;;;;;;5093408;28;20456;-73
2021/11/24 07:04:41;;;;;;;27.47;25.07;;;-2.20;99.90;;;;;;5093125;28;21143;-72
2021/11/24 07:07:08;;;;;;;27.80;24.87;;;-2.30;99.90;;;;;;5092985;28;20458;-73
2021/11/24 07:09:35;;;;;;;28.23;25.43;;;-2.20;99.90;;;;;;5093003;28;20937;-73
2021/11/24 07:12:02;;;;;;;30.73;27.80;;;-2.00;99.90;;;;;;5092926;28;20836;-73
2021/11/24 07:14:30;;;;;;;29.90;26.80;;;-2.00;99.90;;;;;;5092919;28;20474;-73
2021/11/24 07:16:58;;;;;;;32.43;28.97;;;-1.70;99.90;;;;;;5092697;28;20503;-74
2021/11/24 07:19:25;;;;;;;32.40;29.53;;;-1.40;99.90;;;;;;5092582;28;20485;-74
2021/11/24 07:21:52;;;;;;;32.63;29.47;;;-0.90;99.90;;;;;;5092699;28;20464;-76
2021/11/24 07:24:21;;;;;;;35.80;32.70;;;-0.40;99.90;;;;;;5092678;28;21002;-75
2021/11/24 07:26:48;;;;;;;34.50;31.07;;;0.10;99.90;;;;;;5092686;28;20972;-75
2021/11/24 07:29:16;;;;;;;38.77;34.77;;;0.60;99.90;;;;;;5092896;28;20450;-74
2021/11/24 07:31:44;;;;;;;37.40;33.40;;;1.10;99.90;;;;;;5092652;28;20451;-74
2021/11/24 07:34:13;;;;;;;37.70;34.30;;;1.60;99.90;;;;;;5092117;28;20500;-74
2021/11/24 07:36:40;;;;;;;37.27;33.63;;;1.80;99.90;;;;;;5092437;28;20448;-74
2021/11/24 07:39:07;;;;;;;35.20;31.70;;;1.80;99.90;;;;;;5092591;28;20860;-75
2021/11/24 07:41:33;;;;;;;32.50;29.60;;;1.80;99.90;;;;;;5092479;28;20448;-75
2021/11/24 07:44:00;;;;;;;31.60;29.10;;;1.70;99.90;;;;;;5092232;28;20481;-76
2021/11/24 07:46:27;;;;;;;32.07;29.50;;;1.40;99.90;;;;;;5092404;28;20446;-75
2021/11/24 07:48:56;;;;;;;28.60;25.87;;;1.10;99.90;;;;;;5092280;28;20443;-79
2021/11/24 07:51:23;;;;;;;29.93;27.00;;;0.80;99.90;;;;;;5092205;28;20465;-76
2021/11/24 07:53:50;;;;;;;30.17;26.97;;;0.60;99.90;;;;;;5091857;28;20443;-76
2021/11/24 07:56:16;;;;;;;31.43;28.23;;;0.40;99.90;;;;;;5092069;28;20447;-77
2021/11/24 07:58:43;;;;;;;32.60;29.47;;;0.30;99.90;;;;;;5091873;28;20446;-76
2021/11/24 08:01:11;;;;;;;33.70;29.97;;;0.30;99.90;;;;;;5091951;28;20461;-76
2021/11/24 08:03:39;;;;;;;34.27;28.17;;;0.30;99.90;;;;;;5092097;28;20813;-75
2021/11/24 08:06:07;;;;;;;38.03;33.07;;;0.40;99.90;;;;;;5091756;28;20453;-76
2021/11/24 08:08:34;;;;;;;35.80;31.90;;;0.60;99.90;;;;;;5091712;28;20449;-75
2021/11/24 08:11:02;;;;;;;32.13;29.20;;;0.90;99.90;;;;;;5091854;28;20445;-78
2021/11/24 08:13:29;;;;;;;32.97;29.67;;;0.70;99.90;;;;;;5091987;28;20874;-77
2021/11/24 08:15:55;;;;;;;32.97;30.07;;;0.80;99.90;;;;;;5091564;28;20439;-76
2021/11/24 08:18:22;;;;;;;34.23;30.57;;;0.90;99.90;;;;;;5091273;28;20870;-76
2021/11/24 08:20:49;;;;;;;42.00;32.77;;;0.80;99.90;;;;;;5091691;28;20449;-75
2021/11/24 08:23:17;;;;;;;36.47;33.03;;;1.00;99.90;;;;;;5091513;28;20449;-75
2021/11/24 08:25:44;;;;;;;35.53;31.83;;;1.30;99.90;;;;;;5091124;28;20483;-76
2021/11/24 08:28:11;;;;;;;36.87;33.13;;;1.40;99.90;;;;;;5091398;28;20996;-76
2021/11/24 08:30:37;;;;;;;32.83;29.73;;;1.60;99.90;;;;;;5091573;28;21225;-79
2021/11/24 08:33:05;;;;;;;36.67;32.97;;;1.70;99.90;;;;;;5091132;28;21050;-78
2021/11/24 08:35:32;;;;;;;37.13;33.43;;;1.70;99.90;;;;;;5091492;28;20503;-78
2021/11/24 08:37:58;;;;;;;37.87;34.47;;;1.70;99.90;;;;;;5091491;28;20450;-78
2021/11/24 08:40:26;;;;;;;38.70;35.13;;;1.70;99.90;;;;;;5091329;28;20455;-77
2021/11/24 08:42:53;;;;;;;38.40;34.40;;;1.90;99.90;;;;;;5091352;28;20440;-78
2021/11/24 08:45:20;;;;;;;43.23;39.50;;;2.10;99.90;;;;;;5091432;28;20846;-77
2021/11/24 08:47:47;;;;;;;42.70;38.40;;;2.40;99.90;;;;;;5091175;28;20771;-74
2021/11/24 08:50:15;;;;;;;44.00;39.40;;;2.70;99.90;;;;;;5091227;28;20556;-75
2021/11/24 08:52:42;;;;;;;45.50;40.90;;;2.90;99.90;;;;;;5091126;28;20449;-75
2021/11/24 08:55:11;;;;;;;42.60;38.40;;;3.00;99.90;;;;;;5090917;28;20444;-75
2021/11/24 08:57:39;;;;;;;42.10;38.20;;;3.10;99.90;;;;;;5090715;28;20574;-75
2021/11/24 09:00:08;;;;;;;41.73;38.20;;;3.40;99.90;;;;;;5090818;28;20451;-76
2021/11/24 09:02:34;;;;;;;44.80;37.97;;;3.40;99.90;;;;;;5091012;28;20446;-76
2021/11/24 09:05:02;;;;;;;41.67;37.77;;;3.20;99.90;;;;;;5091077;28;20485;-76
2021/11/24 09:07:29;;;;;;;42.97;38.83;;;3.30;99.90;;;;;;5090706;28;20938;-75
2021/11/24 09:09:56;;;;;;;42.00;38.50;;;3.30;99.90;;;;;;5090807;28;20452;-76
2021/11/24 09:12:22;;;;;;;41.27;37.27;;;3.50;99.90;;;;;;5090933;28;20837;-75
2021/11/24 09:14:50;;;;;;;42.40;38.40;;;3.60;99.90;;;;;;5090904;28;20450;-76
2021/11/24 09:17:17;;;;;;;44.07;39.77;;;3.60;99.90;;;;;;5090753;28;20797;-76
2021/11/24 09:19:45;;;;;;;41.47;37.67;;;3.70;99.90;;;;;;5092514;28;20484;-78
2021/11/24 09:22:12;;;;;;;42.50;37.80;;;4.10;99.90;;;;;;5091185;28;20816;-75
2021/11/24 09:24:40;;;;;;;40.57;36.47;;;4.60;99.90;;;;;;5089073;28;20484;-76
2021/11/24 09:27:13;;;;;;;36.30;33.20;;;5.70;99.90;;;;;;5089634;28;20501;-76
2021/11/24 09:29:39;;;;;;;34.97;31.90;;;6.50;99.90;;;;;;5090092;28;20931;-76
2021/11/24 09:32:08;;;;;;;33.33;30.67;;;7.90;99.90;;;;;;5089381;28;20453;-76
2021/11/24 09:34:34;;;;;;;29.77;27.33;;;8.80;99.90;;;;;;5089607;28;20450;-76
2021/11/24 09:37:01;;;;;;;29.50;27.00;;;9.50;99.90;;;;;;5094306;28;20465;-76
2021/11/24 09:39:28;;;;;;;26.97;25.07;;;9.90;99.90;;;;;;5094385;28;20489;-75
2021/11/24 09:42:00;;;;;;;26.17;23.97;;;10.40;99.90;;;;;;5094003;28;20819;-76
2021/11/24 09:44:28;;;;;;;25.60;23.50;;;10.50;99.90;;;;;;5094235;28;20450;-78
2021/11/24 09:46:55;;;;;;;26.03;24.07;;;10.80;99.90;;;;;;5093912;28;20446;-83
2021/11/24 09:49:24;;;;;;;26.73;24.73;;;11.40;99.90;;;;;;5093728;28;20473;-76
2021/11/24 09:51:53;;;;;;;25.93;23.90;;;12.10;99.90;;;;;;5092077;28;20450;-80
2021/11/24 09:54:21;;;;;;;25.30;23.50;;;12.10;97.40;;;;;;5093318;28;20970;-78
2021/11/24 09:56:48;;;;;;;24.63;23.03;;;12.20;98.00;;;;;;5093735;28;20471;-77
2021/11/24 09:59:16;;;;;;;25.47;23.73;;;13.00;97.30;;;;;;5093503;28;20445;-78
2021/11/24 10:01:43;;;;;;;24.13;22.47;;;13.80;94.40;;;;;;5093362;28;20469;-78
2021/11/24 10:04:11;;;;;;;23.77;22.20;;;14.40;94.40;;;;;;5093144;28;20446;-78
2021/11/24 10:06:39;;;;;;;24.17;22.57;;;14.80;92.70;;;;;;5093091;28;20643;-77
2021/11/24 10:09:07;;;;;;;23.27;21.77;;;14.00;90.20;;;;;;5093162;28;20552;-77
2021/11/24 10:11:34;;;;;;;23.07;21.37;;;13.60;91.50;;;;;;5093027;28;20449;-77
2021/11/24 10:14:01;;;;;;;23.27;21.60;;;12.60;92.30;;;;;;5093377;28;20461;-77
2021/11/24 10:16:30;;;;;;;25.77;23.83;;;12.30;93.30;;;;;;5092904;28;20442;-76
2021/11/24 10:18:58;;;;;;;24.70;22.90;;;12.00;93.50;;;;;;5092555;28;20473;-76
2021/11/24 10:21:26;;;;;;;25.60;23.83;;;11.90;93.90;;;;;;5092634;28;20445;-75
2021/11/24 10:23:58;;;;;;;24.27;22.47;;;12.10;93.40;;;;;;5092715;28;21123;-73
2021/11/24 10:26:29;;;;;;;24.70;22.90;;;12.50;94.20;;;;;;5092536;28;20485;-74
2021/11/24 10:28:58;;;;;;;23.57;21.93;;;12.50;92.70;;;;;;5092580;28;20542;-74
2021/11/24 10:31:28;;;;;;;21.63;19.93;;;12.20;92.30;;;;;;5092673;28;20835;-74
2021/11/24 10:33:56;;;;;;;22.90;21.30;;;12.30;92.80;;;;;;5092587;28;20445;-75
2021/11/24 10:36:24;;;;;;;22.47;20.77;;;11.70;92.90;;;;;;5092450;28;20673;-75
2021/11/24 10:38:52;;;;;;;21.90;20.20;;;10.90;94.60;;;;;;5092442;28;20464;-75
2021/11/24 10:41:35;;;;;;;22.00;20.47;;;10.00;95.00;;;;;;5092505;28;20452;-75
2021/11/24 10:44:03;;;;;;;23.10;20.77;;;9.70;95.60;;;;;;5092755;28;20574;-73
2021/11/24 10:46:31;;;;;;;20.07;18.67;;;9.50;95.60;;;;;;5092060;28;20504;-75
2021/11/24 10:49:04;;;;;;;21.97;20.27;;;9.90;95.20;;;;;;5092320;28;20453;-73
2021/11/24 10:51:35;;;;;;;25.37;23.07;;;10.10;94.80;;;;;;5092541;28;20455;-76
2021/11/24 10:54:11;;;;;;;24.93;22.73;;;9.50;96.00;;;;;;5092577;28;20446;-73
2021/11/24 10:57:08;;;;;;;25.53;23.33;;;8.40;98.20;;;;;;5092208;28;21002;-75
2021/11/24 10:59:37;;;;;;;27.27;24.80;;;7.90;99.90;;;;;;5092050;28;20442;-74
2021/11/24 11:02:24;;;;;;;26.30;24.03;;;7.80;99.90;;;;;;5091829;28;20980;-74
2021/11/24 11:04:59;;;;;;;25.00;22.80;;;9.80;99.90;;;;;;5092006;28;20457;-74
2021/11/24 11:07:26;;;;;;;21.73;20.07;;;11.40;95.20;;;;;;5092099;28;20489;-74
2021/11/24 11:10:21;;;;;;;22.67;20.97;;;10.70;94.00;;;;;;5091907;28;20929;-74
2021/11/24 11:12:52;;;;;;;20.83;18.90;;;10.20;93.90;;;;;;5086818;28;20961;-74
2021/11/24 11:15:23;;;;;;;21.37;19.77;;;8.70;96.70;;;;;;5092037;28;20503;-74
2021/11/24 11:18:03;;;;;;;20.73;19.03;;;8.70;97.30;;;;;;5091860;28;20465;-73
2021/11/24 11:20:31;;;;;;;21.10;19.60;;;9.00;97.00;;;;;;5091852;28;20561;-73
2021/11/24 11:23:14;;;;;;;21.27;19.50;;;8.60;97.50;;;;;;5091762;28;20808;-73
2021/11/24 11:25:43;;;;;;;21.10;19.50;;;8.80;96.90;;;;;;5091593;28;20489;-73
2021/11/24 11:28:12;;;;;;;22.40;20.60;;;9.10;97.10;;;;;;5091444;28;20498;-74
2021/11/24 11:30:43;;;;;;;22.03;20.33;;;9.80;96.00;;;;;;5091629;28;20450;-73
2021/11/24 11:33:13;;;;;;;19.87;18.40;;;10.00;94.20;;;;;;5091511;28;20721;-73
2021/11/24 11:35:40;;;;;;;21.80;20.00;;;9.90;94.80;;;;;;5091506;28;20454;-74
2021/11/24 11:38:06;;;;;;;20.17;18.60;;;10.20;94.10;;;;;;5091369;28;20823;-73
2021/11/24 11:40:36;;;;;;;21.00;19.30;;;10.10;93.70;;;;;;5091517;28;20930;-74
2021/11/24 11:43:06;;;;;;;21.27;19.63;;;9.90;94.80;;;;;;5091548;28;20478;-73
2021/11/24 11:45:36;;;;;;;21.10;19.47;;;10.30;93.90;;;;;;5091264;28;20478;-74
2021/11/24 11:48:04;;;;;;;21.50;19.70;;;10.50;93.20;;;;;;5091136;28;20500;-74
2021/11/24 11:50:54;;;;;;;21.90;20.10;;;10.10;93.50;;;;;;5091052;28;20469;-73
2021/11/24 11:53:24;;;;;;;20.97;19.17;;;10.30;93.50;;;;;;5091064;28;20450;-73
2021/11/24 11:56:14;;;;;;;23.37;21.47;;;10.10;93.30;;;;;;5091020;28;20454;-73
2021/11/24 11:58:50;;;;;;;24.37;22.17;;;10.60;92.80;;;;;;5090037;28;20794;-73
2021/11/24 12:01:20;;;;;;;21.47;19.60;;;10.30;93.20;;;;;;5091189;28;20449;-73
2021/11/24 12:04:08;;;;;;;19.93;18.53;;;10.20;93.50;;;;;;5091170;28;20936;-73
2021/11/24 12:06:38;;;;;;;21.33;19.73;;;10.00;93.20;;;;;;5090765;28;20486;-72
2021/11/24 12:09:16;;;;;;;20.97;19.47;;;10.10;93.40;;;;;;5090979;28;20698;-72
2021/11/24 12:12:34;;;;;;;20.40;18.90;;;10.30;92.80;;;;;;5090969;28;20520;-73
2021/11/24 12:15:14;;;;;;;23.27;21.37;;;9.80;93.90;;;;;;5091145;28;20461;-72
2021/11/24 12:17:57;;;;;;;22.67;20.30;;;9.70;94.20;;;;;;5090860;28;20515;-74
2021/11/24 12:20:43;;;;;;;19.30;17.83;;;10.00;93.70;;;;;;5090563;28;21039;-73
2021/11/24 12:23:25;;;;;;;20.63;19.07;;;9.20;94.60;;;;;;5090647;28;20494;-72
2021/11/24 12:25:53;;;;;;;20.80;19.20;;;8.40;97.50;;;;;;5090674;28;20826;-73
2021/11/24 12:28:23;;;;;;;20.30;18.70;;;8.40;97.40;;;;;;5090488;28;20493;-73
2021/11/24 12:31:06;;;;;;;21.00;19.30;;;8.10;98.00;;;;;;5090606;28;20862;-73
2021/11/24 12:33:39;;;;;;;21.37;19.67;;;8.10;98.20;;;;;;5090571;28;20971;-73
2021/11/24 12:36:08;;;;;;;21.80;19.90;;;8.00;98.00;;;;;;5090314;28;20796;-72
2021/11/24 12:38:37;;;;;;;22.23;20.33;;;7.70;98.70;;;;;;5090320;28;20503;-73
2021/11/24 12:41:06;;;;;;;22.40;20.20;;;7.10;99.90;;;;;;5090464;28;20456;-72